sensor_id;sensor_type;location;lat;lon;timestamp;temperature;humidity
44215;DHT22;29884;47.450;19.124;2023-11-21T00:00:18;5.30;99.90
44215;DHT22;29884;47.450;19.124;2023-11-21T00:02:44;5.30;99.90
44215;DHT22;29884;47.450;19.124;2023-11-21T00:05:11;5.20;99.90
44215;DHT22;29884;47.450;19.124;2023-11-21T00:07:40;5.20;99.90
44215;DHT22;29884;47.450;19.124;2023-11-21T00:10:06;5.20;99.90
44215;DHT22;29884;47.450;19.124;2023-11-21T00:12:34;5.20;99.90
44215;DHT22;29884;47.450;19.124;2023-11-21T00:15:00;5.20;99.90
44215;DHT22;29884;47.450;19.124;2023-11-21T00:17:25;5.10;99.90
44215;DHT22;29884;47.450;19.124;2023-11-21T00:19:51;5.10;99.90
44215;DHT22;29884;47.450;19.124;2023-11-21T00:22:18;5.10;99.90
44215;DHT22;29884;47.450;19.124;2023-11-21T00:24:43;5.10;99.90
44215;DHT22;29884;47.450;19.124;2023-11-21T00:27:09;5.10;99.90
44215;DHT22;29884;47.450;19.124;2023-11-21T00:29:35;5.00;99.90
44215;DHT22;29884;47.450;19.124;2023-11-21T00:32:01;5.00;99.90
44215;DHT22;29884;47.450;19.124;2023-11-21T00:34:27;5.00;99.90
44215;DHT22;29884;47.450;19.124;2023-11-21T00:36:53;5.00;99.90
44215;DHT22;29884;47.450;19.124;2023-11-21T00:39:18;5.00;99.90
44215;DHT22;29884;47.450;19.124;2023-11-21T00:41:44;5.00;99.90
44215;DHT22;29884;47.450;19.124;2023-11-21T00:44:13;5.10;99.90
44215;DHT22;29884;47.450;19.124;2023-11-21T00:46:39;5.00;99.90
44215;DHT22;29884;47.450;19.124;2023-11-21T00:49:05;5.10;99.90
44215;DHT22;29884;47.450;19.124;2023-11-21T00:51:30;5.10;99.90
44215;DHT22;29884;47.450;19.124;2023-11-21T00:53:57;5.10;99.90
44215;DHT22;29884;47.450;19.124;2023-11-21T00:56:23;5.10;99.90
44215;DHT22;29884;47.450;19.124;2023-11-21T00:58:50;5.00;99.90
44215;DHT22;29884;47.450;19.124;2023-11-21T01:01:20;5.00;99.90
44215;DHT22;29884;47.450;19.124;2023-11-21T01:03:48;4.90;99.90
44215;DHT22;29884;47.450;19.124;2023-11-21T01:06:14;4.90;99.90
44215;DHT22;29884;47.450;19.124;2023-11-21T01:08:40;4.90;99.90
44215;DHT22;29884;47.450;19.124;2023-11-21T01:11:06;4.90;99.90
44215;DHT22;29884;47.450;19.124;2023-11-21T01:13:34;4.90;99.90
44215;DHT22;29884;47.450;19.124;2023-11-21T01:16:00;4.90;99.90
44215;DHT22;29884;47.450;19.124;2023-11-21T01:18:26;4.90;99.90
44215;DHT22;29884;47.450;19.124;2023-11-21T01:20:52;4.90;99.90
44215;DHT22;29884;47.450;19.124;2023-11-21T01:23:20;4.80;99.90
44215;DHT22;29884;47.450;19.124;2023-11-21T01:25:46;4.70;99.90
44215;DHT22;29884;47.450;19.124;2023-11-21T01:28:12;4.70;99.90
44215;DHT22;29884;47.450;19.124;2023-11-21T01:30:38;4.80;99.90
44215;DHT22;29884;47.450;19.124;2023-11-21T01:33:03;4.70;99.90
44215;DHT22;29884;47.450;19.124;2023-11-21T01:35:29;4.70;99.90
44215;DHT22;29884;47.450;19.124;2023-11-21T01:37:55;4.70;99.90
44215;DHT22;29884;47.450;19.124;2023-11-21T01:40:21;4.70;99.90
44215;DHT22;29884;47.450;19.124;2023-11-21T01:42:47;4.70;99.90
44215;DHT22;29884;47.450;19.124;2023-11-21T01:45:13;4.70;99.90
44215;DHT22;29884;47.450;19.124;2023-11-21T01:47:40;4.70;99.90
44215;DHT22;29884;47.450;19.124;2023-11-21T01:50:08;4.70;99.90
44215;DHT22;29884;47.450;19.124;2023-11-21T01:52:37;4.60;99.90
44215;DHT22;29884;47.450;19.124;2023-11-21T01:55:07;4.60;99.90
44215;DHT22;29884;47.450;19.124;2023-11-21T01:57:35;4.70;99.90
44215;DHT22;29884;47.450;19.124;2023-11-21T02:00:02;4.60;99.90
44215;DHT22;29884;47.450;19.124;2023-11-21T02:02:46;4.70;99.90
44215;DHT22;29884;47.450;19.124;2023-11-21T02:05:14;4.70;99.90
44215;DHT22;29884;47.450;19.124;2023-11-21T02:07:41;4.80;99.90
44215;DHT22;29884;47.450;19.124;2023-11-21T02:10:08;4.70;99.90
44215;DHT22;29884;47.450;19.124;2023-11-21T02:12:35;4.70;99.90
44215;DHT22;29884;47.450;19.124;2023-11-21T02:15:04;4.80;99.90
44215;DHT22;29884;47.450;19.124;2023-11-21T02:17:35;4.70;99.90
44215;DHT22;29884;47.450;19.124;2023-11-21T02:20:01;4.70;99.90
44215;DHT22;29884;47.450;19.124;2023-11-21T02:22:31;4.70;99.90
44215;DHT22;29884;47.450;19.124;2023-11-21T02:24:58;4.80;99.90
44215;DHT22;29884;47.450;19.124;2023-11-21T02:27:24;4.80;99.90
44215;DHT22;29884;47.450;19.124;2023-11-21T02:29:50;4.80;99.90
44215;DHT22;29884;47.450;19.124;2023-11-21T02:32:16;4.80;99.90
44215;DHT22;29884;47.450;19.124;2023-11-21T02:34:44;4.90;99.90
44215;DHT22;29884;47.450;19.124;2023-11-21T02:37:10;4.90;99.90
44215;DHT22;29884;47.450;19.124;2023-11-21T02:39:36;4.90;99.90
44215;DHT22;29884;47.450;19.124;2023-11-21T02:42:03;4.80;99.90
44215;DHT22;29884;47.450;19.124;2023-11-21T02:44:29;4.80;99.90
44215;DHT22;29884;47.450;19.124;2023-11-21T02:46:55;4.80;99.90
44215;DHT22;29884;47.450;19.124;2023-11-21T02:49:23;4.80;99.90
44215;DHT22;29884;47.450;19.124;2023-11-21T02:51:48;4.60;99.90
44215;DHT22;29884;47.450;19.124;2023-11-21T02:54:14;4.70;99.90
44215;DHT22;29884;47.450;19.124;2023-11-21T02:56:42;4.70;99.90
44215;DHT22;29884;47.450;19.124;2023-11-21T02:59:08;4.70;99.90
44215;DHT22;29884;47.450;19.124;2023-11-21T03:01:34;4.70;99.90
44215;DHT22;29884;47.450;19.124;2023-11-21T03:04:00;4.70;99.90
44215;DHT22;29884;47.450;19.124;2023-11-21T03:06:25;4.70;99.90
44215;DHT22;29884;47.450;19.124;2023-11-21T03:08:51;4.60;99.90
44215;DHT22;29884;47.450;19.124;2023-11-21T03:11:17;4.70;99.90
44215;DHT22;29884;47.450;19.124;2023-11-21T03:13:43;4.70;99.90
44215;DHT22;29884;47.450;19.124;2023-11-21T03:16:12;4.80;99.90
44215;DHT22;29884;47.450;19.124;2023-11-21T03:18:39;4.70;99.90
44215;DHT22;29884;47.450;19.124;2023-11-21T03:21:05;4.70;99.90
44215;DHT22;29884;47.450;19.124;2023-11-21T03:23:32;4.80;99.90
44215;DHT22;29884;47.450;19.124;2023-11-21T03:25:57;4.80;99.90
44215;DHT22;29884;47.450;19.124;2023-11-21T03:28:25;4.80;99.90
44215;DHT22;29884;47.450;19.124;2023-11-21T03:30:52;4.80;99.90
44215;DHT22;29884;47.450;19.124;2023-11-21T03:33:17;4.80;99.90
44215;DHT22;29884;47.450;19.124;2023-11-21T03:35:43;4.80;99.90
44215;DHT22;29884;47.450;19.124;2023-11-21T03:38:10;4.80;99.90
44215;DHT22;29884;47.450;19.124;2023-11-21T03:40:36;4.80;99.90
44215;DHT22;29884;47.450;19.124;2023-11-21T03:43:02;4.90;99.90
44215;DHT22;29884;47.450;19.124;2023-11-21T03:45:28;4.80;99.90
44215;DHT22;29884;47.450;19.124;2023-11-21T03:47:54;4.90;99.90
44215;DHT22;29884;47.450;19.124;2023-11-21T03:50:19;4.80;99.90
44215;DHT22;29884;47.450;19.124;2023-11-21T03:52:45;4.80;99.90
44215;DHT22;29884;47.450;19.124;2023-11-21T03:55:11;4.80;99.90
44215;DHT22;29884;47.450;19.124;2023-11-21T03:57:37;4.80;99.90
44215;DHT22;29884;47.450;19.124;2023-11-21T04:00:03;4.80;99.90
44215;DHT22;29884;47.450;19.124;2023-11-21T04:02:34;4.80;99.90
44215;DHT22;29884;47.450;19.124;2023-11-21T04:05:00;4.80;99.90
44215;DHT22;29884;47.450;19.124;2023-11-21T04:07:25;4.80;99.90
44215;DHT22;29884;47.450;19.124;2023-11-21T04:09:51;4.80;99.90
44215;DHT22;29884;47.450;19.124;2023-11-21T04:12:17;4.80;99.90
44215;DHT22;29884;47.450;19.124;2023-11-21T04:14:42;4.80;99.90
44215;DHT22;29884;47.450;19.124;2023-11-21T04:17:08;4.80;99.90
44215;DHT22;29884;47.450;19.124;2023-11-21T04:19:34;4.80;99.90
44215;DHT22;29884;47.450;19.124;2023-11-21T04:22:00;4.80;99.90
44215;DHT22;29884;47.450;19.124;2023-11-21T04:24:26;4.80;99.90
44215;DHT22;29884;47.450;19.124;2023-11-21T04:26:52;4.80;99.90
44215;DHT22;29884;47.450;19.124;2023-11-21T04:29:19;4.80;99.90
44215;DHT22;29884;47.450;19.124;2023-11-21T04:31:44;4.80;99.90
44215;DHT22;29884;47.450;19.124;2023-11-21T04:34:10;4.80;99.90
44215;DHT22;29884;47.450;19.124;2023-11-21T04:36:35;4.80;99.90
44215;DHT22;29884;47.450;19.124;2023-11-21T04:39:01;4.80;99.90
44215;DHT22;29884;47.450;19.124;2023-11-21T04:41:27;4.80;99.90
44215;DHT22;29884;47.450;19.124;2023-11-21T04:43:52;4.80;99.90
44215;DHT22;29884;47.450;19.124;2023-11-21T04:46:18;4.80;99.90
44215;DHT22;29884;47.450;19.124;2023-11-21T04:48:44;4.80;99.90
44215;DHT22;29884;47.450;19.124;2023-11-21T04:51:10;4.80;99.90
44215;DHT22;29884;47.450;19.124;2023-11-21T04:53:38;4.90;99.90
44215;DHT22;29884;47.450;19.124;2023-11-21T04:56:05;4.90;99.90
44215;DHT22;29884;47.450;19.124;2023-11-21T04:58:31;5.00;99.90
44215;DHT22;29884;47.450;19.124;2023-11-21T05:00:57;5.00;99.90
44215;DHT22;29884;47.450;19.124;2023-11-21T05:03:23;5.00;99.90
44215;DHT22;29884;47.450;19.124;2023-11-21T05:05:49;5.10;99.90
44215;DHT22;29884;47.450;19.124;2023-11-21T05:08:15;5.10;99.90
44215;DHT22;29884;47.450;19.124;2023-11-21T05:10:41;5.20;99.90
44215;DHT22;29884;47.450;19.124;2023-11-21T05:13:06;5.20;99.90
44215;DHT22;29884;47.450;19.124;2023-11-21T05:15:36;5.30;99.90
44215;DHT22;29884;47.450;19.124;2023-11-21T05:18:03;5.30;99.90
44215;DHT22;29884;47.450;19.124;2023-11-21T05:20:28;5.30;99.90
44215;DHT22;29884;47.450;19.124;2023-11-21T05:22:54;5.40;99.90
44215;DHT22;29884;47.450;19.124;2023-11-21T05:25:20;5.40;99.90
44215;DHT22;29884;47.450;19.124;2023-11-21T05:27:46;5.40;99.90
44215;DHT22;29884;47.450;19.124;2023-11-21T05:30:13;5.40;99.90
44215;DHT22;29884;47.450;19.124;2023-11-21T05:32:39;5.40;99.90
44215;DHT22;29884;47.450;19.124;2023-11-21T05:35:08;5.50;99.90
44215;DHT22;29884;47.450;19.124;2023-11-21T05:37:38;5.50;99.90
44215;DHT22;29884;47.450;19.124;2023-11-21T05:40:07;5.50;99.90
44215;DHT22;29884;47.450;19.124;2023-11-21T05:42:34;5.50;99.90
44215;DHT22;29884;47.450;19.124;2023-11-21T05:45:00;5.50;99.90
44215;DHT22;29884;47.450;19.124;2023-11-21T05:47:45;5.50;99.90
44215;DHT22;29884;47.450;19.124;2023-11-21T05:50:13;5.50;99.90
44215;DHT22;29884;47.450;19.124;2023-11-21T05:52:40;5.50;99.90
44215;DHT22;29884;47.450;19.124;2023-11-21T05:55:07;5.50;99.90
44215;DHT22;29884;47.450;19.124;2023-11-21T05:57:39;5.50;99.90
44215;DHT22;29884;47.450;19.124;2023-11-21T06:00:08;5.60;99.90
44215;DHT22;29884;47.450;19.124;2023-11-21T06:02:38;5.50;99.90
44215;DHT22;29884;47.450;19.124;2023-11-21T06:05:08;5.50;99.90
44215;DHT22;29884;47.450;19.124;2023-11-21T06:07:34;5.60;99.90
44215;DHT22;29884;47.450;19.124;2023-11-21T06:10:04;5.60;99.90
44215;DHT22;29884;47.450;19.124;2023-11-21T06:12:35;5.60;99.90
44215;DHT22;29884;47.450;19.124;2023-11-21T06:15:04;5.60;99.90
44215;DHT22;29884;47.450;19.124;2023-11-21T06:17:31;5.60;99.90
44215;DHT22;29884;47.450;19.124;2023-11-21T06:19:57;5.60;99.90
44215;DHT22;29884;47.450;19.124;2023-11-21T06:22:23;5.70;99.90
44215;DHT22;29884;47.450;19.124;2023-11-21T06:24:49;5.70;99.90
44215;DHT22;29884;47.450;19.124;2023-11-21T06:27:14;5.80;99.90
44215;DHT22;29884;47.450;19.124;2023-11-21T06:29:41;5.80;99.90
44215;DHT22;29884;47.450;19.124;2023-11-21T06:32:07;5.80;99.90
44215;DHT22;29884;47.450;19.124;2023-11-21T06:34:34;5.80;99.90
44215;DHT22;29884;47.450;19.124;2023-11-21T06:36:59;5.90;99.90
44215;DHT22;29884;47.450;19.124;2023-11-21T06:39:25;5.90;99.90
44215;DHT22;29884;47.450;19.124;2023-11-21T06:41:50;5.90;99.90
44215;DHT22;29884;47.450;19.124;2023-11-21T06:44:16;6.00;99.90
44215;DHT22;29884;47.450;19.124;2023-11-21T06:46:42;6.10;99.90
44215;DHT22;29884;47.450;19.124;2023-11-21T06:49:08;6.10;99.90
44215;DHT22;29884;47.450;19.124;2023-11-21T06:51:34;6.20;99.90
44215;DHT22;29884;47.450;19.124;2023-11-21T06:54:00;6.10;99.90
44215;DHT22;29884;47.450;19.124;2023-11-21T06:56:25;6.20;99.90
44215;DHT22;29884;47.450;19.124;2023-11-21T06:58:51;6.30;99.90
44215;DHT22;29884;47.450;19.124;2023-11-21T07:01:19;6.30;99.90
44215;DHT22;29884;47.450;19.124;2023-11-21T07:03:45;6.30;99.90
44215;DHT22;29884;47.450;19.124;2023-11-21T07:06:11;6.30;99.90
44215;DHT22;29884;47.450;19.124;2023-11-21T07:08:37;6.40;99.90
44215;DHT22;29884;47.450;19.124;2023-11-21T07:11:03;6.50;99.90
44215;DHT22;29884;47.450;19.124;2023-11-21T07:13:30;6.60;99.90
44215;DHT22;29884;47.450;19.124;2023-11-21T07:15:57;6.70;99.90
44215;DHT22;29884;47.450;19.124;2023-11-21T07:18:23;6.80;99.90
44215;DHT22;29884;47.450;19.124;2023-11-21T07:20:48;6.90;99.90
44215;DHT22;29884;47.450;19.124;2023-11-21T07:23:14;6.90;99.90
44215;DHT22;29884;47.450;19.124;2023-11-21T07:25:41;7.00;99.90
44215;DHT22;29884;47.450;19.124;2023-11-21T07:28:08;7.00;99.90
44215;DHT22;29884;47.450;19.124;2023-11-21T07:30:34;7.10;99.90
44215;DHT22;29884;47.450;19.124;2023-11-21T07:33:00;7.10;99.90
44215;DHT22;29884;47.450;19.124;2023-11-21T07:35:26;7.00;99.90
44215;DHT22;29884;47.450;19.124;2023-11-21T07:37:52;7.10;99.90
44215;DHT22;29884;47.450;19.124;2023-11-21T07:40:17;7.10;99.90
44215;DHT22;29884;47.450;19.124;2023-11-21T07:42:43;7.10;99.90
44215;DHT22;29884;47.450;19.124;2023-11-21T07:45:09;7.10;99.90
44215;DHT22;29884;47.450;19.124;2023-11-21T07:47:35;7.20;99.90
44215;DHT22;29884;47.450;19.124;2023-11-21T07:50:02;7.20;99.90
44215;DHT22;29884;47.450;19.124;2023-11-21T07:52:28;7.30;99.90
44215;DHT22;29884;47.450;19.124;2023-11-21T07:54:54;7.30;99.90
44215;DHT22;29884;47.450;19.124;2023-11-21T07:57:20;7.30;99.90
44215;DHT22;29884;47.450;19.124;2023-11-21T07:59:45;7.40;99.90
44215;DHT22;29884;47.450;19.124;2023-11-21T08:02:11;7.40;99.90
44215;DHT22;29884;47.450;19.124;2023-11-21T08:04:37;7.50;99.90
44215;DHT22;29884;47.450;19.124;2023-11-21T08:07:03;7.50;99.90
44215;DHT22;29884;47.450;19.124;2023-11-21T08:09:29;7.60;99.90
44215;DHT22;29884;47.450;19.124;2023-11-21T08:11:55;7.60;99.90
44215;DHT22;29884;47.450;19.124;2023-11-21T08:14:22;7.70;99.90
44215;DHT22;29884;47.450;19.124;2023-11-21T08:16:50;7.70;99.90
44215;DHT22;29884;47.450;19.124;2023-11-21T08:19:16;7.70;99.90
44215;DHT22;29884;47.450;19.124;2023-11-21T08:21:43;7.80;99.90
44215;DHT22;29884;47.450;19.124;2023-11-21T08:24:10;7.80;99.90
44215;DHT22;29884;47.450;19.124;2023-11-21T08:26:37;7.80;99.90
44215;DHT22;29884;47.450;19.124;2023-11-21T08:29:03;7.80;99.90
44215;DHT22;29884;47.450;19.124;2023-11-21T08:31:29;7.90;99.90
44215;DHT22;29884;47.450;19.124;2023-11-21T08:33:55;7.90;99.90
44215;DHT22;29884;47.450;19.124;2023-11-21T08:36:25;8.00;99.90
44215;DHT22;29884;47.450;19.124;2023-11-21T08:38:51;8.10;99.90
44215;DHT22;29884;47.450;19.124;2023-11-21T08:41:20;8.10;99.90
44215;DHT22;29884;47.450;19.124;2023-11-21T08:43:50;8.10;99.90
44215;DHT22;29884;47.450;19.124;2023-11-21T08:46:16;8.10;99.90
44215;DHT22;29884;47.450;19.124;2023-11-21T08:48:44;8.20;99.90
44215;DHT22;29884;47.450;19.124;2023-11-21T08:51:14;8.20;99.90
44215;DHT22;29884;47.450;19.124;2023-11-21T08:53:40;8.20;99.90
44215;DHT22;29884;47.450;19.124;2023-11-21T08:56:06;8.20;99.90
44215;DHT22;29884;47.450;19.124;2023-11-21T08:58:32;8.20;99.90
44215;DHT22;29884;47.450;19.124;2023-11-21T09:00:58;8.30;99.90
44215;DHT22;29884;47.450;19.124;2023-11-21T09:03:24;8.30;99.90
44215;DHT22;29884;47.450;19.124;2023-11-21T09:05:50;8.30;99.90
44215;DHT22;29884;47.450;19.124;2023-11-21T09:08:16;8.30;99.90
44215;DHT22;29884;47.450;19.124;2023-11-21T09:10:42;8.40;99.90
44215;DHT22;29884;47.450;19.124;2023-11-21T09:13:08;8.50;99.90
44215;DHT22;29884;47.450;19.124;2023-11-21T09:15:35;8.50;99.90
44215;DHT22;29884;47.450;19.124;2023-11-21T09:18:01;8.50;99.90
44215;DHT22;29884;47.450;19.124;2023-11-21T09:20:27;8.50;99.90
44215;DHT22;29884;47.450;19.124;2023-11-21T09:22:53;8.50;99.90
44215;DHT22;29884;47.450;19.124;2023-11-21T09:25:20;8.60;99.90
44215;DHT22;29884;47.450;19.124;2023-11-21T09:27:46;8.60;99.90
44215;DHT22;29884;47.450;19.124;2023-11-21T09:30:12;8.60;99.90
44215;DHT22;29884;47.450;19.124;2023-11-21T09:32:39;8.70;99.90
44215;DHT22;29884;47.450;19.124;2023-11-21T09:35:06;8.70;99.90
44215;DHT22;29884;47.450;19.124;2023-11-21T09:37:34;8.70;99.90
44215;DHT22;29884;47.450;19.124;2023-11-21T09:39:59;8.70;99.90
44215;DHT22;29884;47.450;19.124;2023-11-21T09:42:40;8.80;99.90
44215;DHT22;29884;47.450;19.124;2023-11-21T09:45:28;8.90;99.90
44215;DHT22;29884;47.450;19.124;2023-11-21T09:47:55;8.90;99.90
44215;DHT22;29884;47.450;19.124;2023-11-21T09:50:21;8.90;99.90
44215;DHT22;29884;47.450;19.124;2023-11-21T09:55:19;8.90;99.90
44215;DHT22;29884;47.450;19.124;2023-11-21T09:57:47;8.90;99.90
44215;DHT22;29884;47.450;19.124;2023-11-21T10:00:14;8.90;99.90
44215;DHT22;29884;47.450;19.124;2023-11-21T10:02:43;8.90;99.90
44215;DHT22;29884;47.450;19.124;2023-11-21T10:05:09;8.90;99.90
44215;DHT22;29884;47.450;19.124;2023-11-21T10:07:35;9.00;99.90
44215;DHT22;29884;47.450;19.124;2023-11-21T10:10:01;9.00;99.90
44215;DHT22;29884;47.450;19.124;2023-11-21T10:12:28;9.00;99.90
44215;DHT22;29884;47.450;19.124;2023-11-21T10:14:58;9.00;99.90
44215;DHT22;29884;47.450;19.124;2023-11-21T10:17:26;9.00;99.90
44215;DHT22;29884;47.450;19.124;2023-11-21T10:19:56;9.00;99.90
44215;DHT22;29884;47.450;19.124;2023-11-21T10:22:23;8.90;99.90
44215;DHT22;29884;47.450;19.124;2023-11-21T10:24:49;8.90;99.90
44215;DHT22;29884;47.450;19.124;2023-11-21T10:27:15;8.90;99.90
44215;DHT22;29884;47.450;19.124;2023-11-21T10:29:40;9.00;99.90
44215;DHT22;29884;47.450;19.124;2023-11-21T10:32:07;9.00;99.90
44215;DHT22;29884;47.450;19.124;2023-11-21T10:34:33;9.00;99.90
44215;DHT22;29884;47.450;19.124;2023-11-21T10:37:10;8.90;99.90
44215;DHT22;29884;47.450;19.124;2023-11-21T10:39:36;8.90;99.90
44215;DHT22;29884;47.450;19.124;2023-11-21T10:42:02;8.90;99.90
44215;DHT22;29884;47.450;19.124;2023-11-21T10:44:28;9.00;99.90
44215;DHT22;29884;47.450;19.124;2023-11-21T10:46:54;9.00;99.90
44215;DHT22;29884;47.450;19.124;2023-11-21T10:49:30;8.90;99.90
44215;DHT22;29884;47.450;19.124;2023-11-21T10:51:56;8.90;99.90
44215;DHT22;29884;47.450;19.124;2023-11-21T10:54:24;8.90;99.90
44215;DHT22;29884;47.450;19.124;2023-11-21T10:56:56;9.00;99.90
44215;DHT22;29884;47.450;19.124;2023-11-21T10:59:23;9.00;99.90
44215;DHT22;29884;47.450;19.124;2023-11-21T11:01:51;9.10;99.90
44215;DHT22;29884;47.450;19.124;2023-11-21T11:04:22;9.10;99.90
44215;DHT22;29884;47.450;19.124;2023-11-21T11:07:02;9.20;99.90
44215;DHT22;29884;47.450;19.124;2023-11-21T11:09:30;9.20;99.90
44215;DHT22;29884;47.450;19.124;2023-11-21T11:11:56;9.20;99.90
44215;DHT22;29884;47.450;19.124;2023-11-21T11:14:22;9.30;99.90
44215;DHT22;29884;47.450;19.124;2023-11-21T11:16:54;9.20;99.90
44215;DHT22;29884;47.450;19.124;2023-11-21T11:19:21;9.20;99.90
44215;DHT22;29884;47.450;19.124;2023-11-21T11:27:17;9.30;99.90
44215;DHT22;29884;47.450;19.124;2023-11-21T11:35:25;9.40;99.90
44215;DHT22;29884;47.450;19.124;2023-11-21T11:37:52;9.40;99.90
44215;DHT22;29884;47.450;19.124;2023-11-21T11:40:18;9.50;99.90
44215;DHT22;29884;47.450;19.124;2023-11-21T11:43:01;9.50;99.90
44215;DHT22;29884;47.450;19.124;2023-11-21T11:45:34;9.50;99.90
44215;DHT22;29884;47.450;19.124;2023-11-21T11:48:01;9.50;99.90
44215;DHT22;29884;47.450;19.124;2023-11-21T11:50:27;9.60;99.90
44215;DHT22;29884;47.450;19.124;2023-11-21T11:52:54;9.50;99.90
44215;DHT22;29884;47.450;19.124;2023-11-21T11:55:24;9.50;99.90
44215;DHT22;29884;47.450;19.124;2023-11-21T11:57:54;9.50;99.90
44215;DHT22;29884;47.450;19.124;2023-11-21T12:02:58;9.60;99.90
44215;DHT22;29884;47.450;19.124;2023-11-21T12:05:25;9.70;99.90
44215;DHT22;29884;47.450;19.124;2023-11-21T12:07:57;9.70;99.90
44215;DHT22;29884;47.450;19.124;2023-11-21T12:10:37;9.80;99.90
44215;DHT22;29884;47.450;19.124;2023-11-21T12:13:12;9.80;99.90
44215;DHT22;29884;47.450;19.124;2023-11-21T12:15:38;9.80;99.90
44215;DHT22;29884;47.450;19.124;2023-11-21T12:18:07;9.80;99.90
44215;DHT22;29884;47.450;19.124;2023-11-21T12:20:33;9.80;99.90
44215;DHT22;29884;47.450;19.124;2023-11-21T12:23:05;9.90;99.90
44215;DHT22;29884;47.450;19.124;2023-11-21T12:25:31;9.90;99.90
44215;DHT22;29884;47.450;19.124;2023-11-21T12:28:02;9.90;99.90
44215;DHT22;29884;47.450;19.124;2023-11-21T12:30:33;9.90;99.90
44215;DHT22;29884;47.450;19.124;2023-11-21T12:33:01;9.80;99.90
44215;DHT22;29884;47.450;19.124;2023-11-21T12:35:29;9.80;99.90
44215;DHT22;29884;47.450;19.124;2023-11-21T12:37:56;9.80;99.90
44215;DHT22;29884;47.450;19.124;2023-11-21T12:40:25;9.90;99.90
44215;DHT22;29884;47.450;19.124;2023-11-21T12:42:56;9.90;99.90
44215;DHT22;29884;47.450;19.124;2023-11-21T12:45:24;9.90;99.90
44215;DHT22;29884;47.450;19.124;2023-11-21T12:48:02;10.00;99.90
44215;DHT22;29884;47.450;19.124;2023-11-21T12:50:33;10.00;99.90
44215;DHT22;29884;47.450;19.124;2023-11-21T12:53:01;10.00;99.90
44215;DHT22;29884;47.450;19.124;2023-11-21T12:55:32;10.00;99.90
44215;DHT22;29884;47.450;19.124;2023-11-21T12:58:04;10.00;99.90
44215;DHT22;29884;47.450;19.124;2023-11-21T13:00:40;10.00;99.90
44215;DHT22;29884;47.450;19.124;2023-11-21T13:03:09;9.90;99.90
44215;DHT22;29884;47.450;19.124;2023-11-21T13:05:38;9.90;99.90
44215;DHT22;29884;47.450;19.124;2023-11-21T13:08:06;9.80;99.90
44215;DHT22;29884;47.450;19.124;2023-11-21T13:10:37;9.80;99.90
44215;DHT22;29884;47.450;19.124;2023-11-21T13:13:06;9.80;99.90
44215;DHT22;29884;47.450;19.124;2023-11-21T13:15:34;9.80;99.90
44215;DHT22;29884;47.450;19.124;2023-11-21T13:18:02;9.80;99.90
44215;DHT22;29884;47.450;19.124;2023-11-21T13:20:28;9.70;99.90
44215;DHT22;29884;47.450;19.124;2023-11-21T13:22:56;9.70;99.90
44215;DHT22;29884;47.450;19.124;2023-11-21T13:25:25;9.70;99.90
44215;DHT22;29884;47.450;19.124;2023-11-21T13:27:58;9.70;99.90
44215;DHT22;29884;47.450;19.124;2023-11-21T13:30:25;9.70;99.90
44215;DHT22;29884;47.450;19.124;2023-11-21T13:33:01;9.70;99.90
44215;DHT22;29884;47.450;19.124;2023-11-21T13:35:30;9.80;99.90
44215;DHT22;29884;47.450;19.124;2023-11-21T13:38:04;9.80;99.90
44215;DHT22;29884;47.450;19.124;2023-11-21T13:40:31;9.80;99.90
44215;DHT22;29884;47.450;19.124;2023-11-21T13:42:56;9.70;99.90
44215;DHT22;29884;47.450;19.124;2023-11-21T13:45:25;9.70;99.90
44215;DHT22;29884;47.450;19.124;2023-11-21T13:47:54;9.70;99.90
44215;DHT22;29884;47.450;19.124;2023-11-21T13:50:24;9.70;99.90
44215;DHT22;29884;47.450;19.124;2023-11-21T13:52:54;9.60;99.90
44215;DHT22;29884;47.450;19.124;2023-11-21T13:55:20;9.70;99.90
44215;DHT22;29884;47.450;19.124;2023-11-21T13:57:49;9.60;99.90
44215;DHT22;29884;47.450;19.124;2023-11-21T14:00:18;9.60;99.90
44215;DHT22;29884;47.450;19.124;2023-11-21T14:03:02;9.60;99.90
44215;DHT22;29884;47.450;19.124;2023-11-21T14:05:31;9.60;99.90
44215;DHT22;29884;47.450;19.124;2023-11-21T14:07:59;9.60;99.90
44215;DHT22;29884;47.450;19.124;2023-11-21T14:10:31;9.60;99.90
44215;DHT22;29884;47.450;19.124;2023-11-21T14:13:12;9.50;99.90
44215;DHT22;29884;47.450;19.124;2023-11-21T14:15:39;9.50;99.90
44215;DHT22;29884;47.450;19.124;2023-11-21T14:18:11;9.50;99.90
44215;DHT22;29884;47.450;19.124;2023-11-21T14:20:40;9.50;99.90
44215;DHT22;29884;47.450;19.124;2023-11-21T14:23:06;9.40;99.90
44215;DHT22;29884;47.450;19.124;2023-11-21T14:25:36;9.40;99.90
44215;DHT22;29884;47.450;19.124;2023-11-21T14:28:03;9.40;99.90
44215;DHT22;29884;47.450;19.124;2023-11-21T14:30:32;9.40;99.90
44215;DHT22;29884;47.450;19.124;2023-11-21T14:32:59;9.30;99.90
44215;DHT22;29884;47.450;19.124;2023-11-21T14:35:25;9.30;99.90
44215;DHT22;29884;47.450;19.124;2023-11-21T14:37:52;9.20;99.90
44215;DHT22;29884;47.450;19.124;2023-11-21T14:40:18;9.10;99.90
44215;DHT22;29884;47.450;19.124;2023-11-21T14:42:48;9.10;99.90
44215;DHT22;29884;47.450;19.124;2023-11-21T14:45:14;9.00;99.90
44215;DHT22;29884;47.450;19.124;2023-11-21T14:47:45;9.00;99.90
44215;DHT22;29884;47.450;19.124;2023-11-21T14:50:21;8.90;99.90
44215;DHT22;29884;47.450;19.124;2023-11-21T14:53:05;8.80;99.90
44215;DHT22;29884;47.450;19.124;2023-11-21T14:55:35;8.80;99.90
44215;DHT22;29884;47.450;19.124;2023-11-21T14:58:19;8.70;99.90
44215;DHT22;29884;47.450;19.124;2023-11-21T15:00:58;8.60;99.90
44215;DHT22;29884;47.450;19.124;2023-11-21T15:03:27;8.60;99.90
44215;DHT22;29884;47.450;19.124;2023-11-21T15:06:03;8.60;99.90
44215;DHT22;29884;47.450;19.124;2023-11-21T15:08:51;8.60;99.90
44215;DHT22;29884;47.450;19.124;2023-11-21T15:11:40;8.60;99.90
44215;DHT22;29884;47.450;19.124;2023-11-21T15:14:07;8.60;99.90
44215;DHT22;29884;47.450;19.124;2023-11-21T15:16:38;8.70;99.90
44215;DHT22;29884;47.450;19.124;2023-11-21T15:19:10;8.70;99.90
44215;DHT22;29884;47.450;19.124;2023-11-21T15:21:37;8.70;99.90
44215;DHT22;29884;47.450;19.124;2023-11-21T15:24:03;8.70;99.90
44215;DHT22;29884;47.450;19.124;2023-11-21T15:26:29;8.70;99.90
44215;DHT22;29884;47.450;19.124;2023-11-21T15:28:55;8.60;99.90
44215;DHT22;29884;47.450;19.124;2023-11-21T15:31:22;8.60;99.90
44215;DHT22;29884;47.450;19.124;2023-11-21T15:33:51;8.50;99.90
44215;DHT22;29884;47.450;19.124;2023-11-21T15:36:17;8.60;99.90
44215;DHT22;29884;47.450;19.124;2023-11-21T15:38:45;8.50;99.90
44215;DHT22;29884;47.450;19.124;2023-11-21T15:41:10;8.50;99.90
44215;DHT22;29884;47.450;19.124;2023-11-21T15:43:37;8.50;99.90
44215;DHT22;29884;47.450;19.124;2023-11-21T15:46:03;8.50;99.90
44215;DHT22;29884;47.450;19.124;2023-11-21T15:48:34;8.40;99.90